createdAt,value
2017-09-19T00:01:39.848Z,100660.42
2017-09-19T00:04:46.150Z,100666.65
2017-09-19T00:07:21.009Z,100664.57
2017-09-19T00:09:54.453Z,100667.07
2017-09-19T00:18:31.023Z,100661.37
2017-09-19T00:21:12.667Z,100657.54
2017-09-19T00:29:18.681Z,100658.46
2017-09-19T00:31:52.242Z,100658.23
2017-09-19T00:37:09.780Z,100662.18
2017-09-19T00:39:48.424Z,100658.75
2017-09-19T00:42:22.042Z,100655.44
2017-09-19T00:44:57.787Z,100652.81
2017-09-19T00:50:27.320Z,100651.45
2017-09-19T00:53:06.440Z,100648.15
2017-09-19T00:55:44.357Z,100649.72
2017-09-19T01:07:07.530Z,100647.17
2017-09-19T01:09:53.009Z,100645.86
2017-09-19T01:17:59.487Z,100639.56
2017-09-19T01:20:35.692Z,100637.29
2017-09-19T01:31:31.733Z,100626.64
2017-09-19T01:34:18.044Z,100621.80
2017-09-19T01:36:59.212Z,100625.99
2017-09-19T01:42:18.977Z,100628.33
2017-09-19T01:44:53.830Z,100633.81
2017-09-19T01:47:37.163Z,100637.73
2017-09-19T01:50:20.115Z,100633.66
2017-09-19T01:55:39.207Z,100634.45
2017-09-19T02:00:59.444Z,100620.55
2017-09-19T02:06:35.706Z,100627.13
2017-09-19T02:09:17.239Z,100623.67
2017-09-19T02:11:56.163Z,100625.42
2017-09-19T02:14:34.501Z,100623.61
2017-09-19T02:17:10.755Z,100620.48
2017-09-19T02:19:47.146Z,100616.20
2017-09-19T02:22:20.735Z,100616.91
2017-09-19T02:24:57.076Z,100614.24
2017-09-19T02:30:32.066Z,100618.41
2017-09-19T02:33:11.625Z,100623.25
2017-09-19T02:35:45.572Z,100617.28
2017-09-19T02:38:27.053Z,100616.03
2017-09-19T02:41:02.578Z,100615.50
2017-09-19T02:43:36.237Z,100615.94
2017-09-19T02:46:15.381Z,100615.20
2017-09-19T02:48:47.852Z,100614.65
2017-09-19T02:51:21.957Z,100616.11
2017-09-19T02:53:55.445Z,100614.55
2017-09-19T02:59:38.490Z,100610.75
2017-09-19T03:10:54.469Z,100608.83
2017-09-19T03:13:32.569Z,100607.09
2017-09-19T03:18:58.947Z,100611.34
2017-09-19T03:24:17.722Z,100612.09
2017-09-19T03:26:53.025Z,100613.45
2017-09-19T03:29:29.514Z,100609.23
2017-09-19T03:32:24.304Z,100605.13
2017-09-19T03:37:58.225Z,100608.42
2017-09-19T03:40:57.888Z,100607.86
2017-09-19T03:43:42.770Z,100610.30
2017-09-19T03:46:31.237Z,100606.15
2017-09-19T03:49:04.235Z,100612.16
2017-09-19T03:51:36.938Z,100605.24
2017-09-19T03:54:09.583Z,100610.78
2017-09-19T03:56:41.865Z,100609.89
2017-09-19T03:59:14.422Z,100614.80
2017-09-19T04:01:45.631Z,100613.70
2017-09-19T04:04:18.986Z,100613.97
2017-09-19T04:06:52.588Z,100618.02
2017-09-19T04:09:39.161Z,100622.27
2017-09-19T04:15:16.913Z,100608.34
2017-09-19T04:17:51.402Z,100609.38
2017-09-19T04:20:24.525Z,100609.11
2017-09-19T04:22:56.492Z,100617.28
2017-09-19T04:25:30.268Z,100618.56
2017-09-19T04:28:07.604Z,100621.53
2017-09-19T04:30:56.391Z,100624.72
2017-09-19T04:33:35.620Z,100620.63
2017-09-19T04:39:21.722Z,100624.94
2017-09-19T04:44:42.735Z,100627.85
2017-09-19T04:47:13.899Z,100630.11
2017-09-19T04:49:45.826Z,100624.48
2017-09-19T04:52:17.032Z,100637.44
2017-09-19T04:54:49.554Z,100637.01
2017-09-19T04:57:20.726Z,100633.09
2017-09-19T04:59:52.779Z,100638.41
2017-09-19T05:02:24.107Z,100641.81
2017-09-19T05:04:55.368Z,100644.32
2017-09-19T05:07:26.450Z,100643.37
2017-09-19T05:09:57.561Z,100646.34
2017-09-19T05:12:28.604Z,100645.02
2017-09-19T05:15:00.114Z,100649.06
2017-09-19T05:17:31.153Z,100647.88
2017-09-19T05:20:03.201Z,100645.88
2017-09-19T05:22:34.278Z,100654.88
2017-09-19T05:25:05.689Z,100650.66
2017-09-19T05:27:37.122Z,100643.95
2017-09-19T05:30:09.056Z,100646.09
2017-09-19T05:32:40.164Z,100651.30
2017-09-19T05:35:12.528Z,100654.58
2017-09-19T05:37:43.638Z,100656.88
2017-09-19T05:40:14.724Z,100659.02
2017-09-19T05:42:48.091Z,100663.17
2017-09-19T05:45:20.778Z,100663.17
2017-09-19T05:47:55.146Z,100670.37
2017-09-19T05:50:26.632Z,100667.19
2017-09-19T05:57:39.629Z,100672.38
2017-09-19T06:00:10.902Z,100671.40
2017-09-19T06:02:43.294Z,100676.63
2017-09-19T06:05:15.222Z,100670.92
2017-09-19T06:07:47.046Z,100669.95
2017-09-19T06:10:18.426Z,100672.67
2017-09-19T06:12:51.216Z,100671.53
2017-09-19T06:15:22.642Z,100670.16
2017-09-19T06:17:54.174Z,100675.56
2017-09-19T06:23:56.956Z,100679.42
2017-09-19T06:26:35.849Z,100676.73
2017-09-19T06:32:05.422Z,100678.64
2017-09-19T06:37:21.192Z,100676.26
2017-09-19T06:40:08.950Z,100675.91
2017-09-19T06:42:45.971Z,100675.23
2017-09-19T06:48:09.232Z,100676.50
2017-09-19T06:50:50.175Z,100679.66
2017-09-19T06:53:26.449Z,100679.38
2017-09-19T06:56:12.859Z,100681.61
2017-09-19T06:58:50.679Z,100681.52
2017-09-19T07:01:26.916Z,100682.08
2017-09-19T08:36:46.928Z,100690.17
2017-09-19T08:39:18.902Z,100688.35
2017-09-19T08:41:50.303Z,100687.19
2017-09-19T08:44:22.161Z,100690.00
2017-09-19T08:46:55.468Z,100695.77
2017-09-19T08:49:26.574Z,100692.39
2017-09-19T08:51:57.948Z,100699.97
2017-09-19T08:54:29.188Z,100702.66
2017-09-19T08:57:05.239Z,100705.64
2017-09-19T08:59:36.886Z,100701.63
2017-09-19T09:02:07.971Z,100701.70
2017-09-19T09:04:39.095Z,100706.89
2017-09-19T09:07:11.786Z,100709.56
2017-09-19T09:09:43.985Z,100708.05
2017-09-19T09:12:15.216Z,100711.67
2017-09-19T09:14:47.114Z,100707.16
2017-09-19T09:17:18.440Z,100713.06
2017-09-19T09:19:52.768Z,100708.23
2017-09-19T09:22:24.219Z,100712.11
2017-09-19T09:24:55.396Z,100711.44
2017-09-19T09:27:26.463Z,100713.96
2017-09-19T09:29:57.930Z,100712.17
2017-09-19T09:32:29.383Z,100704.01
2017-09-19T09:35:00.456Z,100704.23
2017-09-19T09:37:31.829Z,100701.05
2017-09-19T09:40:07.293Z,100694.25
2017-09-19T09:42:38.498Z,100690.77
2017-09-19T09:45:09.662Z,100698.70
2017-09-19T09:47:40.787Z,100699.13
2017-09-19T09:50:13.652Z,100700.91
2017-09-19T09:52:45.220Z,100706.34
2017-09-19T09:55:16.404Z,100706.32
2017-09-19T09:57:48.178Z,100708.30
2017-09-19T10:00:20.098Z,100707.34
2017-09-19T10:02:55.712Z,100704.60
2017-09-19T10:05:28.490Z,100698.70
2017-09-19T10:08:05.249Z,100695.59
2017-09-19T10:10:40.395Z,100703.31
2017-09-19T10:13:14.345Z,100702.13
2017-09-19T10:15:47.774Z,100701.69
2017-09-19T10:18:20.757Z,100697.38
2017-09-19T10:20:55.807Z,100690.91
2017-09-19T10:23:29.464Z,100691.02
2017-09-19T10:26:00.663Z,100689.96
2017-09-19T10:28:31.840Z,100680.18
2017-09-19T10:31:04.296Z,100681.41
2017-09-19T10:33:36.488Z,100668.00
2017-09-19T10:36:07.739Z,100668.39
2017-09-19T10:38:39.263Z,100662.68
2017-09-19T10:41:10.359Z,100664.06
2017-09-19T10:43:41.477Z,100671.39
2017-09-19T10:46:12.550Z,100669.62
2017-09-19T10:48:43.799Z,100673.70
2017-09-19T10:51:21.821Z,100676.08
2017-09-19T10:53:56.037Z,100687.33
2017-09-19T10:56:29.598Z,100681.05
2017-09-19T10:59:05.586Z,100687.26
2017-09-19T11:01:36.802Z,100689.11
2017-09-19T11:04:08.196Z,100693.01
2017-09-19T11:06:39.546Z,100695.53
2017-09-19T11:09:11.360Z,100696.62
2017-09-19T11:11:43.379Z,100698.00
2017-09-19T11:14:15.410Z,100706.19
2017-09-19T11:16:46.673Z,100704.11
2017-09-19T11:19:20.385Z,100712.90
2017-09-19T11:21:51.475Z,100708.69
2017-09-19T11:24:23.490Z,100710.29
2017-09-19T11:26:54.869Z,100707.44
2017-09-19T11:29:26.704Z,100705.52
2017-09-19T11:31:57.835Z,100706.95
2017-09-19T11:34:29.299Z,100703.42
2017-09-19T11:37:00.865Z,100700.91
2017-09-19T11:39:32.329Z,100714.42
2017-09-19T11:42:05.681Z,100709.44
2017-09-19T11:44:37.840Z,100708.42
2017-09-19T11:47:09.060Z,100705.73
2017-09-19T11:49:40.785Z,100698.74
2017-09-19T11:52:11.969Z,100703.29
2017-09-19T11:54:43.418Z,100693.06
2017-09-19T11:57:14.555Z,100683.47
2017-09-19T11:59:45.668Z,100678.98
2017-09-19T12:02:17.485Z,100672.72
2017-09-19T12:04:48.840Z,100670.38
2017-09-19T12:07:21.539Z,100674.05
2017-09-19T12:09:52.920Z,100675.09
2017-09-19T12:12:25.390Z,100668.67
2017-09-19T12:14:56.507Z,100671.36
2017-09-19T12:17:27.681Z,100678.80
2017-09-19T12:19:59.235Z,100675.52
2017-09-19T12:22:30.395Z,100678.39
2017-09-19T12:25:02.050Z,100671.47
2017-09-19T12:27:33.145Z,100673.19
2017-09-19T12:30:06.434Z,100674.98
2017-09-19T12:32:37.592Z,100671.11
2017-09-19T12:35:08.754Z,100678.35
2017-09-19T12:37:41.877Z,100684.13
2017-09-19T12:40:13.266Z,100685.16
2017-09-19T12:42:44.421Z,100684.20
2017-09-19T12:45:15.624Z,100688.88
2017-09-19T12:47:46.725Z,100695.34
2017-09-19T12:50:21.717Z,100695.41
2017-09-19T12:52:55.161Z,100700.80
2017-09-19T12:55:26.240Z,100701.13
2017-09-19T12:57:57.926Z,100701.89
2017-09-19T13:00:31.095Z,100701.61
2017-09-19T13:03:03.672Z,100703.56
2017-09-19T13:08:41.581Z,100729.92
2017-09-19T13:11:16.405Z,100731.10
2017-09-19T13:13:53.504Z,100732.70
2017-09-19T13:16:28.161Z,100734.05
2017-09-19T13:19:01.570Z,100733.68
2017-09-19T13:21:32.636Z,100739.94
2017-09-19T13:34:00.672Z,100744.39
2017-09-19T13:36:33.124Z,100738.86
2017-09-19T13:39:05.632Z,100732.04
2017-09-19T13:41:39.716Z,100727.75
2017-09-19T13:44:11.440Z,100728.73
2017-09-19T13:46:42.775Z,100726.09
2017-09-19T13:49:16.966Z,100728.58
2017-09-19T13:51:49.003Z,100728.28
2017-09-19T13:54:32.031Z,100732.45
2017-09-19T14:00:09.907Z,100728.88
2017-09-19T14:05:32.944Z,100717.98
2017-09-19T14:08:05.329Z,100714.17
2017-09-19T14:10:36.883Z,100707.56
2017-09-19T14:13:08.800Z,100705.11
2017-09-19T14:15:42.335Z,100703.33
2017-09-19T14:18:13.835Z,100702.00
2017-09-19T14:23:44.476Z,100702.94
2017-09-19T14:26:15.772Z,100688.34
2017-09-19T14:29:05.416Z,100687.52
2017-09-19T14:31:41.952Z,100689.73
2017-09-19T14:34:14.893Z,100688.05
2017-09-19T14:36:46.263Z,100684.21
2017-09-19T14:39:18.079Z,100684.09
2017-09-19T14:41:49.174Z,100685.44
2017-09-19T14:44:21.124Z,100689.06
2017-09-19T14:46:53.134Z,100693.19
2017-09-19T14:49:26.804Z,100687.24
2017-09-19T14:51:58.998Z,100687.78
2017-09-19T14:54:37.774Z,100689.34
2017-09-19T15:00:14.871Z,100677.16
2017-09-19T15:02:53.920Z,100683.75
2017-09-19T15:05:27.878Z,100683.67
2017-09-19T15:08:00.249Z,100676.19
2017-09-19T15:10:37.588Z,100675.53
2017-09-19T15:13:09.049Z,100680.98
2017-09-19T15:15:40.426Z,100675.95
2017-09-19T15:18:19.790Z,100682.36
2017-09-19T15:20:50.968Z,100680.27
2017-09-19T15:26:27.791Z,100697.66
2017-09-19T15:29:01.374Z,100696.31
2017-09-19T15:31:32.652Z,100698.55
2017-09-19T15:34:11.169Z,100698.64
2017-09-19T15:36:47.515Z,100691.28
2017-09-19T15:42:22.892Z,100705.47
2017-09-19T15:44:55.011Z,100704.09
2017-09-19T15:47:26.426Z,100701.18
2017-09-19T15:50:03.431Z,100709.80
2017-09-19T15:55:48.762Z,100708.70
2017-09-19T15:58:20.793Z,100716.91
2017-09-19T16:06:58.653Z,100721.66
2017-09-19T16:15:39.132Z,100735.18
2017-09-19T16:18:12.056Z,100749.16
2017-09-19T16:20:52.415Z,100746.45
2017-09-19T16:23:23.709Z,100757.65
2017-09-19T16:25:57.748Z,100760.41
2017-09-19T16:28:29.946Z,100764.27
2017-09-19T16:31:03.571Z,100768.70
2017-09-19T16:33:35.365Z,100781.38
2017-09-19T16:36:06.889Z,100779.80
2017-09-19T16:38:38.486Z,100781.03
2017-09-19T16:41:37.607Z,100786.44
2017-09-19T16:47:02.533Z,100789.16
2017-09-19T16:49:34.891Z,100794.25
2017-09-19T16:52:37.538Z,100795.16
2017-09-19T16:55:09.505Z,100795.58
2017-09-19T16:57:40.864Z,100800.29
2017-09-19T17:00:14.175Z,100801.30
2017-09-19T17:02:45.439Z,100799.06
2017-09-19T17:05:22.818Z,100806.59
2017-09-19T17:07:53.925Z,100806.23
2017-09-19T17:10:27.917Z,100805.20
2017-09-19T17:12:59.268Z,100816.16
2017-09-19T17:15:42.929Z,100814.59
2017-09-19T17:18:18.569Z,100821.95
2017-09-19T17:20:49.731Z,100821.91
2017-09-19T17:23:21.066Z,100821.22
2017-09-19T17:25:52.862Z,100827.39
2017-09-19T17:28:24.653Z,100830.03
2017-09-19T17:30:56.264Z,100841.72
2017-09-19T17:33:31.376Z,100833.64
2017-09-19T17:36:04.112Z,100840.75
2017-09-19T17:38:35.705Z,100845.58
2017-09-19T17:41:11.197Z,100847.88
2017-09-19T17:43:42.737Z,100852.84
2017-09-19T17:46:14.880Z,100850.91
2017-09-19T17:48:46.253Z,100858.20
2017-09-19T17:51:17.575Z,100857.23
2017-09-19T17:53:49.422Z,100858.84
2017-09-19T17:56:20.937Z,100857.55
2017-09-19T18:01:55.767Z,100871.45
2017-09-19T18:04:28.770Z,100871.27
2017-09-19T18:07:00.274Z,100873.55
2017-09-19T18:09:32.020Z,100878.88
2017-09-19T18:15:06.292Z,100877.60
2017-09-19T18:17:59.868Z,100882.54
2017-09-19T18:20:32.559Z,100886.18
2017-09-19T18:23:05.325Z,100886.53
2017-09-19T18:25:38.236Z,100886.48
2017-09-19T18:28:10.762Z,100891.73
2017-09-19T18:30:42.135Z,100893.55
2017-09-19T18:33:13.447Z,100892.66
2017-09-19T18:38:51.616Z,100903.70
2017-09-19T18:41:36.903Z,100910.52
2017-09-19T18:44:09.826Z,100910.92
2017-09-19T18:49:53.067Z,100914.87
2017-09-19T18:52:25.837Z,100921.16
2017-09-19T18:54:57.901Z,100923.97
2017-09-19T18:57:29.026Z,100928.02
2017-09-19T19:00:00.240Z,100927.55
2017-09-19T19:02:31.393Z,100930.20
2017-09-19T19:05:03.558Z,100927.69
2017-09-19T19:07:35.855Z,100935.30
2017-09-19T19:13:13.536Z,100937.51
2017-09-19T19:15:44.989Z,100937.97
2017-09-19T19:18:17.904Z,100943.92
2017-09-19T19:20:49.613Z,100943.83
2017-09-19T19:23:20.951Z,100943.27
2017-09-19T19:28:51.192Z,100952.13
2017-09-19T19:31:25.896Z,100948.98
2017-09-19T19:33:58.901Z,100957.97
2017-09-19T19:36:43.141Z,100958.50
2017-09-19T19:39:14.437Z,100962.79
2017-09-19T19:41:46.131Z,100961.77
2017-09-19T19:44:21.957Z,100961.20
2017-09-19T19:46:53.552Z,100957.37
2017-09-19T19:49:26.198Z,100958.30
2017-09-19T19:51:59.785Z,100961.80
2017-09-19T19:54:30.892Z,100962.45
2017-09-19T19:57:03.612Z,100968.14
2017-09-19T19:59:35.332Z,100965.86
2017-09-19T20:02:08.140Z,100968.50
2017-09-19T20:04:39.257Z,100962.65
2017-09-19T20:07:12.776Z,100969.19
2017-09-19T20:09:51.924Z,100966.42
2017-09-19T20:12:25.542Z,100972.27
2017-09-19T20:14:56.692Z,100974.91
2017-09-19T20:17:28.350Z,100975.11
2017-09-19T20:19:59.575Z,100979.01
2017-09-19T20:22:34.233Z,100969.10
2017-09-19T20:25:11.804Z,100970.45
2017-09-19T20:27:42.857Z,100971.70
2017-09-19T20:30:18.069Z,100975.14
2017-09-19T20:32:49.763Z,100966.20
2017-09-19T20:35:24.869Z,100969.10
2017-09-19T20:37:56.418Z,100971.31
2017-09-19T20:43:33.445Z,100978.58
2017-09-19T20:48:42.808Z,100985.64
2017-09-19T20:51:14.379Z,100981.42
2017-09-19T20:53:49.947Z,100988.12
2017-09-19T20:56:21.234Z,100992.58
2017-09-19T20:58:53.007Z,100996.51
2017-09-19T21:01:24.960Z,100998.66
2017-09-19T21:04:01.654Z,101003.67
2017-09-19T21:06:38.150Z,100997.85
2017-09-19T21:09:15.232Z,100998.84
2017-09-19T21:11:53.756Z,101002.31
2017-09-19T21:14:31.379Z,101001.29
2017-09-19T21:17:08.315Z,101002.45
2017-09-19T21:19:39.974Z,101005.52
2017-09-19T21:22:14.043Z,101005.45
2017-09-19T21:24:48.134Z,101006.71
2017-09-19T21:27:52.998Z,101006.48
2017-09-19T21:30:35.186Z,101002.22
2017-09-19T21:33:10.093Z,101000.91
2017-09-19T21:35:41.660Z,100999.70
2017-09-19T21:38:26.248Z,101001.12
2017-09-19T21:46:46.409Z,101001.81
2017-09-19T21:52:03.233Z,100994.28
2017-09-19T21:54:38.202Z,100991.77
2017-09-19T21:57:13.252Z,100996.63
2017-09-19T21:59:48.302Z,100991.83
2017-09-19T22:02:24.194Z,100993.48
2017-09-19T22:04:59.070Z,100984.70
2017-09-19T22:07:31.984Z,100990.35
2017-09-19T22:12:47.833Z,100996.20
2017-09-19T22:15:26.437Z,100992.73
2017-09-19T22:18:07.369Z,100999.07
2017-09-19T22:20:38.844Z,100999.07
2017-09-19T22:23:10.714Z,100999.34
2017-09-19T22:25:43.427Z,101002.73
2017-09-19T22:28:14.694Z,101003.14
2017-09-19T22:30:46.792Z,101005.31
2017-09-19T22:33:18.188Z,101004.55
2017-09-19T22:35:49.209Z,101001.09
2017-09-19T22:38:22.312Z,101009.08
2017-09-19T22:40:53.469Z,100996.03
2017-09-19T22:43:25.249Z,100999.96
2017-09-19T22:45:56.398Z,100997.02
2017-09-19T22:48:27.914Z,100989.75
2017-09-19T22:50:59.028Z,100996.94
2017-09-19T22:53:30.237Z,100992.31
2017-09-19T22:56:02.154Z,101001.59
2017-09-19T22:58:33.404Z,100993.70
2017-09-19T23:01:04.829Z,100999.41
2017-09-19T23:03:36.532Z,101000.00
2017-09-19T23:06:07.792Z,101006.97
2017-09-19T23:08:39.116Z,101002.24
2017-09-19T23:11:10.212Z,100998.67
2017-09-19T23:13:42.548Z,101001.38
2017-09-19T23:16:13.676Z,100999.97
2017-09-19T23:18:45.409Z,100998.98
2017-09-19T23:21:16.537Z,100997.96
2017-09-19T23:23:48.505Z,100999.52
2017-09-19T23:26:20.855Z,100996.39
2017-09-19T23:28:54.253Z,100994.17
2017-09-19T23:31:27.393Z,100998.80
2017-09-19T23:33:59.723Z,100997.81
2017-09-19T23:36:32.793Z,100996.70
2017-09-19T23:39:14.111Z,101001.95
2017-09-19T23:41:50.587Z,100995.67
2017-09-19T23:44:22.042Z,100994.32
2017-09-19T23:46:53.488Z,100997.30
2017-09-19T23:49:24.921Z,100999.94
2017-09-19T23:51:56.032Z,100997.76
2017-09-19T23:54:27.535Z,101004.33
2017-09-19T23:56:58.594Z,101002.15
2017-09-19T23:59:29.803Z,100995.58
